Time;durP1;ratioP1;P1;durP2;ratioP2;P2;SDS_P1;SDS_P2;PMS_P1;PMS_P2;Temp;Humidity;BMP_temperature;BMP_pressure;BME280_temperature;BME280_humidity;BME280_pressure;Samples;Min_cycle;Max_cycle;Signal;HPM_P1;HPM_P2
2022/11/21 00:03:29;;;;;;;26.45;17.52;;;1.60;99.90;;;;;;5073004;28;20767;-43
2022/11/21 00:05:56;;;;;;;27.70;18.63;;;1.90;99.90;;;;;;5071229;28;20690;-42
2022/11/21 00:08:22;;;;;;;31.77;21.23;;;1.40;99.90;;;;;;5072055;28;20198;-48
2022/11/21 00:10:49;;;;;;;27.30;18.15;;;1.80;99.90;;;;;;5072373;28;20199;-44
2022/11/21 00:13:18;;;;;;;24.75;17.50;;;1.90;99.90;;;;;;5072414;28;20219;-43
2022/11/21 00:15:45;;;;;;;24.45;19.02;;;1.70;99.90;;;;;;5072463;28;20666;-45
2022/11/21 00:18:12;;;;;;;25.27;18.38;;;1.80;99.90;;;;;;5072500;28;20200;-42
2022/11/21 00:20:41;;;;;;;28.98;17.83;;;1.90;99.90;;;;;;5072073;28;20223;-45
2022/11/21 00:23:08;;;;;;;27.02;17.13;;;1.90;99.90;;;;;;5072240;28;20230;-44
2022/11/21 00:25:35;;;;;;;26.67;17.85;;;2.00;99.90;;;;;;5073025;28;20195;-45
2022/11/21 00:28:02;;;;;;;30.13;18.75;;;1.90;99.90;;;;;;5074245;28;20198;-44
2022/11/21 00:30:28;;;;;;;27.80;19.50;;;1.90;99.90;;;;;;5075867;28;20199;-43
2022/11/21 00:32:55;;;;;;;28.58;18.10;;;1.90;99.90;;;;;;5075726;28;20242;-45
2022/11/21 00:35:25;;;;;;;26.70;19.20;;;1.60;99.90;;;;;;5076106;28;20206;-44
2022/11/21 00:37:56;;;;;;;27.25;18.40;;;2.00;99.90;;;;;;5076373;28;20207;-43
2022/11/21 00:40:23;;;;;;;25.13;15.88;;;1.80;99.90;;;;;;5074862;28;20297;-46
2022/11/21 00:42:49;;;;;;;25.77;17.75;;;1.90;99.90;;;;;;5075493;28;20215;-44
2022/11/21 00:45:16;;;;;;;28.20;17.52;;;1.60;99.90;;;;;;5074930;28;20770;-44
2022/11/21 00:47:43;;;;;;;29.63;19.67;;;1.70;99.90;;;;;;5075516;28;20496;-44
2022/11/21 00:50:10;;;;;;;29.33;20.10;;;2.30;99.90;;;;;;5074972;28;20203;-45
2022/11/21 00:52:36;;;;;;;31.17;20.25;;;1.90;99.90;;;;;;5073303;28;20200;-45
2022/11/21 00:55:05;;;;;;;28.50;19.45;;;1.70;99.90;;;;;;5072957;28;20660;-44
2022/11/21 00:57:31;;;;;;;26.65;18.27;;;1.70;99.90;;;;;;5073081;28;20202;-46
2022/11/21 00:59:58;;;;;;;22.77;16.73;;;1.90;99.90;;;;;;5071086;28;20706;-44
2022/11/21 01:02:24;;;;;;;27.92;18.55;;;1.70;99.90;;;;;;5073413;28;20698;-45
2022/11/21 01:04:51;;;;;;;30.13;19.20;;;1.40;99.90;;;;;;5071580;28;20198;-44
2022/11/21 01:07:18;;;;;;;32.60;19.90;;;1.90;99.90;;;;;;5074256;28;20194;-45
2022/11/21 01:09:44;;;;;;;24.95;18.65;;;1.70;99.90;;;;;;5077637;28;20203;-44
2022/11/21 01:12:12;;;;;;;27.48;18.90;;;1.70;99.90;;;;;;5078081;28;20229;-45
2022/11/21 01:14:39;;;;;;;26.80;19.75;;;1.80;99.90;;;;;;5079744;28;20253;-43
2022/11/21 01:17:05;;;;;;;26.63;19.05;;;2.00;99.90;;;;;;5076284;28;20199;-41
2022/11/21 01:19:34;;;;;;;27.30;18.92;;;2.10;99.90;;;;;;5075287;28;20695;-45
2022/11/21 01:22:01;;;;;;;31.10;20.30;;;2.20;99.90;;;;;;5075895;28;20191;-43
2022/11/21 01:24:27;;;;;;;25.45;19.67;;;1.40;99.90;;;;;;5075639;28;20219;-42
2022/11/21 01:26:54;;;;;;;31.40;20.92;;;2.10;99.90;;;;;;5075697;28;20200;-43
2022/11/21 01:29:22;;;;;;;27.95;19.92;;;2.20;99.90;;;;;;5075135;28;20187;-43
2022/11/21 01:31:49;;;;;;;29.90;19.45;;;2.00;99.90;;;;;;5074270;28;20207;-44
2022/11/21 01:34:17;;;;;;;29.77;19.65;;;2.20;99.90;;;;;;5074031;28;20219;-43
2022/11/21 01:36:44;;;;;;;31.35;21.77;;;2.30;99.90;;;;;;5075308;28;20206;-43
2022/11/21 01:39:11;;;;;;;27.48;18.25;;;2.10;99.90;;;;;;5074411;28;20191;-45
2022/11/21 01:41:40;;;;;;;35.00;20.73;;;2.40;99.90;;;;;;5074943;28;20203;-44
2022/11/21 01:44:17;;;;;;;26.20;18.45;;;2.30;99.90;;;;;;5074953;28;20218;-44
2022/11/21 01:46:45;;;;;;;24.60;17.88;;;2.30;99.90;;;;;;5075277;28;20195;-44
2022/11/21 01:49:15;;;;;;;26.58;18.85;;;2.30;99.90;;;;;;5074508;28;20199;-44
2022/11/21 01:51:46;;;;;;;28.20;18.50;;;2.30;99.90;;;;;;5076259;28;20204;-44
2022/11/21 01:54:17;;;;;;;26.30;17.50;;;2.50;99.90;;;;;;5076297;28;20574;-43
2022/11/21 01:56:49;;;;;;;29.42;20.27;;;2.20;99.90;;;;;;5075406;28;20215;-44
2022/11/21 01:59:21;;;;;;;25.95;17.70;;;2.30;99.90;;;;;;5076732;28;20207;-43
2022/11/21 02:01:53;;;;;;;24.63;17.60;;;2.50;99.90;;;;;;5074985;28;20277;-43
2022/11/21 02:04:22;;;;;;;30.00;16.60;;;2.40;99.90;;;;;;5074953;28;20699;-44
2022/11/21 02:06:49;;;;;;;24.52;16.20;;;2.30;99.90;;;;;;5073481;28;20203;-44
2022/11/21 02:09:16;;;;;;;23.83;16.92;;;1.90;99.90;;;;;;5074226;28;20204;-44
2022/11/21 02:11:47;;;;;;;24.45;17.85;;;2.50;99.90;;;;;;5074668;28;20192;-44
2022/11/21 02:14:14;;;;;;;27.02;19.33;;;2.30;99.90;;;;;;5074529;28;20679;-44
2022/11/21 02:16:42;;;;;;;27.50;18.08;;;2.40;99.90;;;;;;5074354;28;20199;-42
2022/11/21 02:19:18;;;;;;;24.42;18.10;;;2.30;99.90;;;;;;5073799;28;20199;-41
2022/11/21 02:21:53;;;;;;;29.95;19.40;;;2.20;99.90;;;;;;5074060;28;20227;-43
2022/11/21 02:24:28;;;;;;;27.65;17.83;;;2.30;99.90;;;;;;5074063;28;20226;-43
2022/11/21 02:26:56;;;;;;;24.38;17.73;;;2.30;99.90;;;;;;5074243;28;20214;-43
2022/11/21 02:29:23;;;;;;;25.73;18.25;;;2.30;99.90;;;;;;5072233;28;20206;-44
2022/11/21 02:31:51;;;;;;;26.38;18.38;;;2.20;99.90;;;;;;5072799;28;20202;-44
2022/11/21 02:34:17;;;;;;;26.63;17.85;;;2.20;99.90;;;;;;5072733;28;20253;-44
2022/11/21 02:36:46;;;;;;;28.10;18.38;;;1.70;99.90;;;;;;5074024;28;20207;-45
2022/11/21 02:39:19;;;;;;;24.63;18.77;;;2.20;99.90;;;;;;5073280;28;20253;-44
2022/11/21 02:41:52;;;;;;;26.08;18.38;;;2.40;99.90;;;;;;5074132;28;20219;-44
2022/11/21 02:44:25;;;;;;;24.25;18.17;;;2.30;99.90;;;;;;5073947;28;20222;-45
2022/11/21 02:46:52;;;;;;;32.25;19.23;;;2.40;99.90;;;;;;5074197;28;20533;-46
2022/11/21 02:49:25;;;;;;;27.60;19.20;;;2.30;99.90;;;;;;5073675;28;20198;-44
2022/11/21 02:51:52;;;;;;;23.75;17.08;;;2.20;99.90;;;;;;5074685;28;20651;-44
2022/11/21 02:54:18;;;;;;;25.33;17.75;;;2.10;99.90;;;;;;5075236;28;20215;-43
2022/11/21 02:56:45;;;;;;;24.95;18.25;;;1.70;99.90;;;;;;5075377;28;20200;-44
2022/11/21 02:59:11;;;;;;;26.08;18.00;;;2.40;99.90;;;;;;5074137;28;20196;-44
2022/11/21 03:01:39;;;;;;;24.33;18.15;;;2.20;99.90;;;;;;5074634;28;20223;-44
2022/11/21 03:04:06;;;;;;;25.90;19.05;;;2.10;99.90;;;;;;5074007;28;20211;-42
2022/11/21 03:06:33;;;;;;;31.20;18.55;;;2.50;99.90;;;;;;5073981;28;20549;-44
2022/11/21 03:08:59;;;;;;;25.00;17.60;;;2.40;99.90;;;;;;5073213;28;20219;-44
2022/11/21 03:11:26;;;;;;;26.17;18.23;;;2.20;99.90;;;;;;5073364;28;20188;-44
2022/11/21 03:13:52;;;;;;;23.63;16.80;;;2.30;99.90;;;;;;5073280;28;20215;-43
2022/11/21 03:16:19;;;;;;;25.65;18.23;;;2.50;99.90;;;;;;5073356;28;20195;-43
2022/11/21 03:18:47;;;;;;;25.90;18.17;;;2.30;99.90;;;;;;5072534;28;20694;-42
2022/11/21 03:21:13;;;;;;;24.95;18.08;;;2.30;99.90;;;;;;5071768;28;20781;-44
2022/11/21 03:23:40;;;;;;;24.95;17.17;;;2.30;99.90;;;;;;5071246;28;20227;-43
2022/11/21 03:26:07;;;;;;;25.30;18.40;;;2.30;99.90;;;;;;5073077;28;20377;-43
2022/11/21 03:28:33;;;;;;;27.50;18.85;;;2.10;99.90;;;;;;5072302;28;20202;-44
2022/11/21 03:31:00;;;;;;;31.30;19.23;;;1.50;99.90;;;;;;5072298;28;20191;-43
2022/11/21 03:33:27;;;;;;;27.88;18.95;;;2.20;99.90;;;;;;5072687;28;20650;-44
2022/11/21 03:35:55;;;;;;;25.45;17.67;;;2.20;99.90;;;;;;5072713;28;20226;-44
2022/11/21 03:38:21;;;;;;;27.20;19.02;;;2.00;99.90;;;;;;5072569;28;20196;-46
2022/11/21 03:40:48;;;;;;;27.00;18.08;;;2.10;99.90;;;;;;5072729;28;20219;-44
2022/11/21 03:43:14;;;;;;;27.23;19.35;;;2.00;99.90;;;;;;5072656;28;20215;-44
2022/11/21 03:45:41;;;;;;;26.17;18.30;;;1.70;99.90;;;;;;5072691;28;20206;-43
2022/11/21 03:48:07;;;;;;;26.98;18.35;;;1.20;99.90;;;;;;5072407;28;20195;-44
2022/11/21 03:50:34;;;;;;;29.05;20.15;;;2.10;99.90;;;;;;5072170;28;20195;-43
2022/11/21 03:53:02;;;;;;;26.73;19.40;;;2.00;99.90;;;;;;5072278;28;20238;-43
2022/11/21 03:55:29;;;;;;;26.10;18.60;;;1.30;99.90;;;;;;5072455;28;20206;-44
2022/11/21 03:57:55;;;;;;;25.00;17.73;;;1.90;99.90;;;;;;5072196;28;20199;-43
2022/11/21 04:00:22;;;;;;;27.58;20.33;;;1.70;99.90;;;;;;5071776;28;20557;-45
2022/11/21 04:02:48;;;;;;;28.10;19.65;;;1.80;99.90;;;;;;5072179;28;20226;-44
2022/11/21 04:05:15;;;;;;;26.38;18.05;;;1.70;99.90;;;;;;5072405;28;20202;-42
2022/11/21 04:07:42;;;;;;;27.90;19.98;;;1.00;99.90;;;;;;5072186;28;20648;-42
2022/11/21 04:10:10;;;;;;;29.35;18.05;;;1.50;99.90;;;;;;5070553;28;20210;-43
2022/11/21 04:12:37;;;;;;;27.50;19.63;;;1.50;99.90;;;;;;5072198;28;20612;-44
2022/11/21 04:15:04;;;;;;;29.25;19.63;;;1.80;99.90;;;;;;5072165;28;20199;-43
2022/11/21 04:17:31;;;;;;;26.05;18.73;;;1.60;99.90;;;;;;5072089;28;20248;-44
2022/11/21 04:19:58;;;;;;;24.45;17.92;;;1.60;99.90;;;;;;5071535;28;20199;-44
2022/11/21 04:22:24;;;;;;;28.50;19.27;;;1.70;99.90;;;;;;5071834;28;20219;-44
2022/11/21 04:24:51;;;;;;;25.85;18.50;;;1.70;99.90;;;;;;5073837;28;20199;-43
2022/11/21 04:27:19;;;;;;;28.15;18.83;;;2.00;99.90;;;;;;5074818;28;20199;-43
2022/11/21 04:29:45;;;;;;;29.08;20.17;;;1.90;99.90;;;;;;5072488;28;20202;-43
2022/11/21 04:32:12;;;;;;;29.73;19.92;;;1.60;99.90;;;;;;5072035;28;20585;-43
2022/11/21 04:34:38;;;;;;;26.33;19.63;;;1.90;99.90;;;;;;5071914;28;20291;-46
2022/11/21 04:37:05;;;;;;;33.38;20.40;;;2.10;99.90;;;;;;5072218;28;20202;-44
2022/11/21 04:39:32;;;;;;;29.98;21.52;;;2.00;99.90;;;;;;5072763;28;20202;-43
2022/11/21 04:41:58;;;;;;;24.80;18.30;;;2.20;99.90;;;;;;5071475;28;20227;-44
2022/11/21 04:44:27;;;;;;;27.30;20.98;;;2.00;99.90;;;;;;5072882;28;20215;-45
2022/11/21 04:46:53;;;;;;;27.77;20.33;;;2.20;99.90;;;;;;5072244;28;20199;-43
2022/11/21 04:49:20;;;;;;;28.50;19.88;;;2.20;99.90;;;;;;5071352;28;20583;-43
2022/11/21 04:51:46;;;;;;;30.90;21.48;;;1.90;99.90;;;;;;5071569;28;20195;-42
2022/11/21 04:54:13;;;;;;;25.70;18.88;;;2.00;99.90;;;;;;5071910;28;20211;-45
2022/11/21 04:56:40;;;;;;;33.47;22.60;;;2.10;99.90;;;;;;5070620;28;20656;-43
2022/11/21 04:59:06;;;;;;;30.92;21.90;;;2.30;99.90;;;;;;5071118;28;20214;-42
2022/11/21 05:01:34;;;;;;;26.73;20.35;;;2.10;99.90;;;;;;5071531;28;20215;-43
2022/11/21 05:04:01;;;;;;;40.88;21.02;;;1.80;99.90;;;;;;5071624;28;20223;-43
2022/11/21 05:06:27;;;;;;;32.95;20.92;;;1.70;99.90;;;;;;5071453;28;20536;-44
2022/11/21 05:08:54;;;;;;;32.70;20.92;;;2.20;99.90;;;;;;5071117;28;20198;-44
2022/11/21 05:14:05;;;;;;;26.08;19.40;;;2.60;99.90;;;;;;5071656;28;20666;-45
2022/11/21 05:16:34;;;;;;;25.40;20.40;;;2.10;99.90;;;;;;5071597;28;20191;-44
2022/11/21 05:19:00;;;;;;;35.92;20.60;;;2.00;99.90;;;;;;5070941;28;20275;-45
2022/11/21 05:21:27;;;;;;;35.97;24.13;;;1.90;99.90;;;;;;5071337;28;20210;-43
2022/11/21 05:23:54;;;;;;;32.88;21.63;;;2.00;99.90;;;;;;5071525;28;20619;-44
2022/11/21 05:26:21;;;;;;;32.42;22.05;;;2.20;99.90;;;;;;5071812;28;20557;-45
2022/11/21 05:28:48;;;;;;;32.08;21.25;;;1.80;99.90;;;;;;5070808;28;20202;-44
2022/11/21 05:31:14;;;;;;;29.55;21.33;;;2.20;99.90;;;;;;5071942;28;20188;-44
2022/11/21 05:33:42;;;;;;;33.67;21.75;;;2.10;99.90;;;;;;5071332;28;20226;-44
2022/11/21 05:39:56;;;;;;;34.13;20.58;;;2.30;99.90;;;;;;5071078;28;20735;-46
2022/11/21 05:43:44;;;;;;;31.70;20.33;;;2.60;99.90;;;;;;5071236;28;20218;-44
2022/11/21 05:45:09;;;;;;;32.55;21.80;;;2.20;99.90;;;;;;5070620;28;20206;-43
2022/11/21 05:47:48;;;;;;;33.83;21.23;;;2.20;99.90;;;;;;5071630;28;20245;-44
2022/11/21 05:50:18;;;;;;;32.42;21.25;;;2.10;99.90;;;;;;5071475;28;20195;-45
2022/11/21 05:52:45;;;;;;;32.38;23.10;;;2.30;99.90;;;;;;5071051;28;20227;-44
2022/11/21 05:55:11;;;;;;;34.05;22.20;;;2.30;99.90;;;;;;5075523;28;20615;-45
2022/11/21 05:57:38;;;;;;;32.90;21.20;;;2.00;99.90;;;;;;5073738;28;20203;-44
2022/11/21 06:00:05;;;;;;;30.58;22.10;;;2.00;99.90;;;;;;5074702;28;20202;-44
2022/11/21 06:05:17;;;;;;;34.97;23.20;;;2.00;99.90;;;;;;5074550;28;20678;-45
2022/11/21 06:07:44;;;;;;;29.55;21.30;;;2.10;99.90;;;;;;5074472;28;20575;-44
2022/11/21 06:10:11;;;;;;;29.05;21.50;;;1.90;99.90;;;;;;5074158;28;20197;-44
2022/11/21 06:12:37;;;;;;;26.10;19.75;;;2.10;99.90;;;;;;5073239;28;20231;-45
2022/11/21 06:15:04;;;;;;;30.58;21.52;;;2.10;99.90;;;;;;5074817;28;20668;-43
2022/11/21 06:17:31;;;;;;;32.75;22.63;;;2.00;99.90;;;;;;5074839;28;20205;-43
2022/11/21 06:19:58;;;;;;;34.03;22.15;;;2.10;99.90;;;;;;5074576;28;20277;-44
2022/11/21 06:22:26;;;;;;;29.63;20.65;;;2.00;99.90;;;;;;5074937;28;20219;-44
2022/11/21 06:24:53;;;;;;;26.77;19.25;;;2.00;99.90;;;;;;5075970;28;20279;-44
2022/11/21 06:27:19;;;;;;;30.80;21.60;;;1.80;99.90;;;;;;5074292;28;20203;-44
2022/11/21 06:29:51;;;;;;;29.85;21.42;;;2.00;99.90;;;;;;5074848;28;20282;-42
2022/11/21 06:32:21;;;;;;;34.17;21.13;;;1.80;99.90;;;;;;5073204;28;20199;-44
2022/11/21 06:34:49;;;;;;;28.55;20.08;;;1.30;99.90;;;;;;5074555;28;20585;-44
2022/11/21 06:37:16;;;;;;;31.70;20.80;;;1.80;99.90;;;;;;5072324;28;20241;-45
2022/11/21 06:39:43;;;;;;;33.90;22.65;;;1.70;99.90;;;;;;5073897;28;20203;-43
2022/11/21 06:42:10;;;;;;;37.90;22.52;;;1.70;99.90;;;;;;5074071;28;20226;-44
2022/11/21 06:44:44;;;;;;;34.15;21.52;;;1.20;99.90;;;;;;5073109;28;20226;-44
2022/11/21 06:47:11;;;;;;;34.25;22.45;;;1.80;99.90;;;;;;5073124;28;20198;-44
2022/11/21 06:49:38;;;;;;;31.83;22.20;;;1.80;99.90;;;;;;5074086;28;20202;-46
2022/11/21 06:52:05;;;;;;;31.05;21.38;;;1.60;99.90;;;;;;5074637;28;20202;-44
2022/11/21 06:54:31;;;;;;;29.17;21.30;;;1.70;99.90;;;;;;5074709;28;20223;-45
2022/11/21 06:57:00;;;;;;;34.78;24.15;;;1.60;99.90;;;;;;5073300;28;20651;-43
2022/11/21 06:59:27;;;;;;;29.90;20.80;;;1.70;99.90;;;;;;5072576;28;20249;-42
2022/11/21 07:01:53;;;;;;;28.58;20.40;;;1.80;99.90;;;;;;5074539;28;20216;-43
2022/11/21 07:04:20;;;;;;;28.58;20.73;;;1.50;99.90;;;;;;5076790;28;20237;-43
2022/11/21 07:06:47;;;;;;;31.40;21.70;;;1.60;99.90;;;;;;5076187;28;20246;-44
2022/11/21 07:09:13;;;;;;;38.50;24.40;;;1.50;99.90;;;;;;5074840;28;20333;-46
2022/11/21 07:11:40;;;;;;;30.33;22.00;;;1.50;99.90;;;;;;5075837;28;20365;-42
2022/11/21 07:14:07;;;;;;;34.92;24.23;;;1.30;99.90;;;;;;5077013;28;20284;-44
2022/11/21 07:16:34;;;;;;;31.17;21.77;;;1.20;99.90;;;;;;5077142;28;20191;-46
2022/11/21 07:19:01;;;;;;;33.35;22.90;;;1.40;99.90;;;;;;5074190;28;20278;-45
2022/11/21 07:21:27;;;;;;;34.88;22.77;;;1.20;99.90;;;;;;5074166;28;20230;-43
2022/11/21 07:23:54;;;;;;;37.42;24.27;;;1.30;99.90;;;;;;5073981;28;20236;-45
2022/11/21 07:26:20;;;;;;;33.28;23.25;;;1.30;99.90;;;;;;5074372;28;20210;-45
2022/11/21 07:28:47;;;;;;;30.40;20.63;;;1.40;99.90;;;;;;5072971;28;20243;-43
2022/11/21 07:31:15;;;;;;;36.60;22.33;;;1.40;99.90;;;;;;5072980;28;20213;-44
2022/11/21 07:33:43;;;;;;;36.55;21.92;;;1.30;99.90;;;;;;5072958;28;20319;-43
2022/11/21 07:36:10;;;;;;;32.33;23.50;;;1.20;99.90;;;;;;5073144;28;20209;-44
2022/11/21 07:38:37;;;;;;;34.55;24.38;;;1.20;99.90;;;;;;5072139;28;20204;-44
2022/11/21 07:41:04;;;;;;;35.65;23.25;;;1.30;99.90;;;;;;5071608;28;20203;-44
2022/11/21 07:43:30;;;;;;;33.70;23.15;;;1.20;99.90;;;;;;5072691;28;20230;-42
2022/11/21 07:45:57;;;;;;;34.53;23.13;;;1.00;99.90;;;;;;5072455;28;20595;-47
2022/11/21 07:48:25;;;;;;;56.92;26.10;;;1.10;99.90;;;;;;5072423;28;20217;-44
2022/11/21 07:50:52;;;;;;;37.22;25.27;;;1.00;99.90;;;;;;5073614;28;20656;-46
2022/11/21 07:53:18;;;;;;;33.28;22.90;;;1.00;99.90;;;;;;5071937;28;20219;-43
2022/11/21 07:55:45;;;;;;;32.85;23.70;;;1.10;99.90;;;;;;5073060;28;20195;-44
2022/11/21 07:58:15;;;;;;;38.78;26.10;;;1.20;99.90;;;;;;5073097;28;20198;-48
2022/11/21 08:00:42;;;;;;;42.30;26.77;;;0.80;99.90;;;;;;5072406;28;20206;-44
2022/11/21 08:03:10;;;;;;;42.72;25.05;;;1.30;99.90;;;;;;5072655;28;20253;-44
2022/11/21 08:05:39;;;;;;;37.83;25.30;;;1.20;99.90;;;;;;5072826;28;20664;-43
2022/11/21 08:08:06;;;;;;;43.72;26.00;;;1.60;99.90;;;;;;5072359;28;20674;-45
2022/11/21 08:10:33;;;;;;;42.35;26.67;;;1.50;99.90;;;;;;5073232;28;20192;-44
2022/11/21 08:12:59;;;;;;;44.03;28.27;;;1.30;99.90;;;;;;5072684;28;20212;-43
2022/11/21 08:15:26;;;;;;;44.38;27.10;;;1.70;99.90;;;;;;5072319;28;20202;-44
2022/11/21 08:17:53;;;;;;;49.88;28.85;;;1.40;99.90;;;;;;5072333;28;20212;-42
2022/11/21 08:20:19;;;;;;;42.47;26.05;;;1.80;99.90;;;;;;5072933;28;20211;-44
2022/11/21 08:22:47;;;;;;;42.38;27.23;;;1.90;99.90;;;;;;5072881;28;20226;-48
2022/11/21 08:25:14;;;;;;;44.47;24.65;;;1.50;99.90;;;;;;5073841;28;20199;-44
2022/11/21 08:27:41;;;;;;;46.53;28.00;;;1.90;99.90;;;;;;5073777;28;20200;-44
2022/11/21 08:30:10;;;;;;;44.55;26.65;;;1.60;99.90;;;;;;5073374;28;20204;-44
2022/11/21 08:32:38;;;;;;;39.00;24.67;;;1.50;99.90;;;;;;5075321;28;20674;-44
2022/11/21 08:35:05;;;;;;;39.78;25.52;;;2.10;99.90;;;;;;5076151;28;20196;-47
2022/11/21 08:37:32;;;;;;;41.60;24.95;;;1.90;99.90;;;;;;5073348;28;20199;-44
2022/11/21 08:40:01;;;;;;;36.30;22.95;;;1.90;99.90;;;;;;5073435;28;20195;-46
2022/11/21 08:42:27;;;;;;;36.83;23.60;;;1.70;99.90;;;;;;5075089;28;20242;-45
2022/11/21 08:44:54;;;;;;;34.03;21.65;;;1.90;99.90;;;;;;5075216;28;20220;-42
2022/11/21 08:47:21;;;;;;;33.25;22.90;;;1.60;99.90;;;;;;5073508;28;20667;-44
2022/11/21 08:49:48;;;;;;;35.47;23.88;;;1.50;99.90;;;;;;5073437;28;20195;-43
2022/11/21 08:52:16;;;;;;;37.60;24.48;;;2.10;99.90;;;;;;5073749;28;20229;-44
2022/11/21 08:54:43;;;;;;;40.97;26.08;;;2.10;99.90;;;;;;5073309;28;20207;-43
2022/11/21 08:57:10;;;;;;;37.78;23.70;;;2.20;99.90;;;;;;5076893;28;20205;-45
2022/11/21 08:59:37;;;;;;;40.08;24.80;;;1.80;99.90;;;;;;5077914;28;20191;-44
2022/11/21 09:02:04;;;;;;;36.15;24.35;;;2.10;99.90;;;;;;5073889;28;20590;-44
2022/11/21 09:04:30;;;;;;;40.28;25.38;;;1.30;99.90;;;;;;5071838;28;20218;-44
2022/11/21 09:06:57;;;;;;;41.00;24.48;;;2.00;99.90;;;;;;5072108;28;20199;-45
2022/11/21 09:09:23;;;;;;;35.67;23.50;;;1.40;99.90;;;;;;5071251;28;20208;-44
2022/11/21 09:11:50;;;;;;;36.53;21.25;;;1.80;99.90;;;;;;5071335;28;20699;-43
2022/11/21 09:19:46;;;;;;;42.72;23.08;;;2.10;99.90;;;;;;5070603;28;20195;-46
2022/11/21 09:22:13;;;;;;;40.08;23.25;;;2.00;99.90;;;;;;5071213;28;20233;-45
2022/11/21 09:24:40;;;;;;;32.00;19.98;;;2.00;99.90;;;;;;5071470;28;20226;-44
2022/11/21 09:27:06;;;;;;;38.10;23.05;;;1.80;99.90;;;;;;5071638;28;20275;-43
2022/11/21 09:29:34;;;;;;;37.90;22.05;;;1.70;99.90;;;;;;5071990;28;20203;-45
2022/11/21 09:32:01;;;;;;;34.45;20.45;;;2.10;99.90;;;;;;5075173;28;20192;-44
2022/11/21 09:34:27;;;;;;;38.33;21.33;;;1.90;99.90;;;;;;5075331;28;20226;-44
2022/11/21 09:36:55;;;;;;;43.17;23.40;;;1.80;99.90;;;;;;5075715;28;20195;-46
2022/11/21 09:39:22;;;;;;;31.55;21.45;;;1.90;99.90;;;;;;5075357;28;20195;-44
2022/11/21 09:41:58;;;;;;;37.50;21.15;;;1.90;99.90;;;;;;5075469;28;20205;-45
2022/11/21 09:44:54;;;;;;;36.60;22.55;;;2.00;99.90;;;;;;5075288;28;20550;-44
2022/11/21 09:47:25;;;;;;;38.67;22.38;;;2.20;99.90;;;;;;5074826;28;20226;-45
2022/11/21 09:49:57;;;;;;;37.33;21.65;;;2.20;99.90;;;;;;5074862;28;20248;-45
2022/11/21 09:52:31;;;;;;;40.70;22.40;;;1.90;99.90;;;;;;5075317;28;20199;-45
2022/11/21 09:55:03;;;;;;;32.88;21.00;;;2.10;99.90;;;;;;5076131;28;20524;-43
2022/11/21 09:57:32;;;;;;;41.80;25.48;;;2.10;99.90;;;;;;5076174;28;20191;-44
2022/11/21 10:00:02;;;;;;;37.35;21.58;;;1.70;99.90;;;;;;5075698;28;20199;-44
2022/11/21 10:02:39;;;;;;;35.33;24.30;;;1.80;99.90;;;;;;5077222;28;20525;-42
2022/11/21 10:05:12;;;;;;;33.95;20.17;;;2.10;99.90;;;;;;5075382;28;20200;-44
2022/11/21 10:07:40;;;;;;;39.38;21.15;;;2.10;99.90;;;;;;5075069;28;20206;-44
2022/11/21 10:10:19;;;;;;;32.60;20.05;;;2.10;99.90;;;;;;5074590;28;20374;-45
2022/11/21 10:12:58;;;;;;;35.30;20.23;;;1.80;99.90;;;;;;5075400;28;20242;-43
2022/11/21 10:15:38;;;;;;;33.08;20.65;;;2.00;99.90;;;;;;5073806;28;20206;-44
2022/11/21 10:18:38;;;;;;;36.25;20.60;;;1.60;99.90;;;;;;5074647;28;20229;-45
2022/11/21 10:21:13;;;;;;;32.55;18.83;;;1.60;99.90;;;;;;5077301;28;20203;-42
2022/11/21 10:23:56;;;;;;;30.85;19.35;;;1.10;99.90;;;;;;5094816;22;20720;-48
2022/11/21 10:26:31;;;;;;;30.58;18.73;;;1.50;99.90;;;;;;5094859;28;20197;-47
2022/11/21 10:29:02;;;;;;;30.17;18.50;;;1.50;99.90;;;;;;5094248;28;20209;-47
2022/11/21 10:31:36;;;;;;;36.85;20.75;;;0.70;99.90;;;;;;5094620;28;20193;-48
2022/11/21 10:34:08;;;;;;;30.35;19.17;;;1.40;99.90;;;;;;5094356;28;20224;-49
2022/11/21 10:36:39;;;;;;;30.00;20.00;;;1.50;99.90;;;;;;5094476;28;20197;-47
2022/11/21 10:39:13;;;;;;;32.88;20.70;;;1.30;99.90;;;;;;5093713;28;20217;-50
2022/11/21 10:41:46;;;;;;;33.35;19.25;;;0.70;99.90;;;;;;5093967;28;20202;-49
2022/11/21 10:47:14;;;;;;;25.65;16.38;;;1.40;99.90;;;;;;5090386;28;20537;-47
2022/11/21 10:49:42;;;;;;;27.65;18.38;;;1.30;99.90;;;;;;5085207;28;20424;-47
2022/11/21 10:52:13;;;;;;;26.88;17.38;;;1.50;99.90;;;;;;5094394;28;20191;-47
2022/11/21 10:55:09;;;;;;;21.17;14.35;;;1.30;99.90;;;;;;5093841;28;20213;-48
2022/11/21 10:57:41;;;;;;;22.75;14.82;;;1.30;99.90;;;;;;5093886;28;20191;-47
2022/11/21 11:00:20;;;;;;;24.08;14.27;;;1.40;99.90;;;;;;5094004;28;20207;-47
2022/11/21 11:03:07;;;;;;;20.27;13.25;;;1.40;99.90;;;;;;5094126;28;20210;-47
2022/11/21 11:05:36;;;;;;;21.20;14.75;;;1.50;99.90;;;;;;5074071;28;20245;-49
2022/11/21 11:08:08;;;;;;;19.70;13.10;;;1.60;99.90;;;;;;5073699;28;20195;-48
2022/11/21 11:10:36;;;;;;;17.73;11.80;;;1.70;99.90;;;;;;5073046;28;20211;-47
2022/11/21 11:16:02;;;;;;;18.77;12.02;;;1.40;99.90;;;;;;5074056;28;20250;-46
2022/11/21 11:18:31;;;;;;;20.15;13.10;;;1.80;99.90;;;;;;5073116;28;20660;-48
2022/11/21 11:21:15;;;;;;;22.25;14.25;;;1.80;99.90;;;;;;5091000;28;20277;-47
2022/11/21 11:23:42;;;;;;;20.77;11.55;;;1.90;99.90;;;;;;5092976;28;20238;-47
2022/11/21 11:26:23;;;;;;;18.20;12.60;;;2.20;99.90;;;;;;5092732;28;20570;-47
2022/11/21 11:28:50;;;;;;;21.13;13.75;;;2.30;99.90;;;;;;5074679;28;20213;-46
2022/11/21 11:31:17;;;;;;;23.10;16.10;;;2.20;99.90;;;;;;5075090;28;20209;-46
2022/11/21 11:33:53;;;;;;;22.40;16.73;;;2.30;99.90;;;;;;5093094;28;20221;-48
2022/11/21 11:36:33;;;;;;;28.20;18.83;;;2.00;99.90;;;;;;5092802;28;20560;-48
2022/11/21 11:39:05;;;;;;;28.48;18.30;;;2.50;99.90;;;;;;5092416;28;20194;-49
2022/11/21 11:47:49;;;;;;;29.05;18.17;;;2.30;99.90;;;;;;5093296;28;20651;-50
2022/11/21 11:50:21;;;;;;;25.23;18.85;;;1.80;99.90;;;;;;5091948;28;20428;-49
2022/11/21 11:53:01;;;;;;;25.83;18.05;;;2.10;99.90;;;;;;5089720;28;20194;-48
2022/11/21 11:55:34;;;;;;;23.35;16.38;;;1.80;99.90;;;;;;5084618;28;20194;-48
2022/11/21 11:58:05;;;;;;;24.02;15.40;;;2.20;99.90;;;;;;5093306;28;20206;-48
2022/11/21 12:00:40;;;;;;;24.95;16.35;;;2.10;99.90;;;;;;5092375;28;20207;-49
2022/11/21 12:03:14;;;;;;;29.90;22.42;;;2.40;99.90;;;;;;5093262;28;20221;-49
2022/11/21 12:05:53;;;;;;;25.08;16.38;;;2.50;99.90;;;;;;5093411;28;20282;-47
2022/11/21 12:08:26;;;;;;;21.48;16.17;;;2.30;99.90;;;;;;5092920;28;20677;-48
2022/11/21 12:13:43;;;;;;;25.70;19.83;;;1.80;99.90;;;;;;5091385;28;20423;-48
2022/11/21 12:16:14;;;;;;;22.75;17.10;;;2.50;99.90;;;;;;5092251;28;20209;-49
2022/11/21 12:18:50;;;;;;;27.30;18.35;;;1.90;99.90;;;;;;5090243;28;20201;-48
2022/11/21 12:21:19;;;;;;;24.70;17.77;;;2.00;99.90;;;;;;5071916;28;20214;-47
2022/11/21 12:23:50;;;;;;;23.25;17.35;;;2.50;99.90;;;;;;5071611;28;20306;-49
2022/11/21 12:26:31;;;;;;;24.30;18.92;;;2.00;99.90;;;;;;5064313;28;20214;-50
2022/11/21 12:29:07;;;;;;;25.50;17.80;;;2.20;99.90;;;;;;5070699;28;20223;-51
2022/11/21 12:31:48;;;;;;;29.55;20.60;;;2.20;99.90;;;;;;5071546;28;20278;-50
2022/11/21 12:34:30;;;;;;;28.83;20.58;;;2.20;99.90;;;;;;5071935;28;20222;-50
2022/11/21 12:37:02;;;;;;;26.85;18.88;;;1.90;99.90;;;;;;5071595;28;20217;-50
2022/11/21 12:39:55;;;;;;;25.90;18.67;;;2.20;99.90;;;;;;5071083;28;20560;-49
2022/11/21 12:45:27;;;;;;;25.77;19.20;;;2.10;99.90;;;;;;5085133;28;20255;-49
2022/11/21 12:54:38;;;;;;;26.38;18.27;;;2.40;99.90;;;;;;5082533;28;20210;-48
2022/11/21 12:57:10;;;;;;;24.13;19.30;;;2.50;99.90;;;;;;5091254;28;20439;-49
2022/11/21 12:59:47;;;;;;;25.80;18.67;;;2.80;99.90;;;;;;5091123;28;20563;-50
2022/11/21 13:02:39;;;;;;;19.17;15.60;;;2.60;99.90;;;;;;5091772;28;20428;-48
2022/11/21 13:05:10;;;;;;;17.08;13.02;;;2.60;99.90;;;;;;5094552;28;20226;-50
2022/11/21 13:07:38;;;;;;;17.77;14.50;;;2.60;99.90;;;;;;5096088;28;20679;-49
2022/11/21 13:10:13;;;;;;;15.02;13.35;;;2.50;99.90;;;;;;5094848;28;20277;-48
2022/11/21 13:12:45;;;;;;;17.95;13.85;;;2.60;99.90;;;;;;5095393;28;20197;-49
2022/11/21 13:15:21;;;;;;;16.55;13.85;;;2.50;99.90;;;;;;5095498;28;20226;-48
2022/11/21 13:17:53;;;;;;;20.00;13.75;;;2.30;99.90;;;;;;5096131;28;20203;-50
2022/11/21 13:20:26;;;;;;;15.80;12.35;;;2.60;99.90;;;;;;5095617;28;20209;-47
2022/11/21 13:22:58;;;;;;;17.17;12.70;;;2.40;99.90;;;;;;5095669;28;20199;-48
2022/11/21 13:25:40;;;;;;;20.80;14.50;;;2.50;99.90;;;;;;5095561;28;20709;-47
2022/11/21 13:28:30;;;;;;;16.55;13.90;;;2.50;99.90;;;;;;5095848;28;20271;-48